sensor_id;sensor_type;location;lat;lon;timestamp;P1;durP1;ratioP1;P2;durP2;ratioP2
32026;SDS011;18543;50.848;4.596;2023-05-10T00:00:09;1.23;;;0.70;;
32026;SDS011;18543;50.848;4.596;2023-05-10T00:02:36;1.00;;;0.68;;
32026;SDS011;18543;50.848;4.596;2023-05-10T00:05:04;2.08;;;0.90;;
32026;SDS011;18543;50.848;4.596;2023-05-10T00:07:32;2.60;;;0.90;;
32026;SDS011;18543;50.848;4.596;2023-05-10T00:09:59;3.20;;;0.80;;
32026;SDS011;18543;50.848;4.596;2023-05-10T00:12:26;2.60;;;0.80;;
32026;SDS011;18543;50.848;4.596;2023-05-10T00:14:56;1.67;;;0.80;;
32026;SDS011;18543;50.848;4.596;2023-05-10T00:17:25;0.80;;;0.70;;
32026;SDS011;18543;50.848;4.596;2023-05-10T00:19:53;0.77;;;0.70;;
32026;SDS011;18543;50.848;4.596;2023-05-10T00:22:20;1.70;;;0.80;;
32026;SDS011;18543;50.848;4.596;2023-05-10T00:24:47;1.13;;;0.77;;
32026;SDS011;18543;50.848;4.596;2023-05-10T00:27:15;0.80;;;0.70;;
32026;SDS011;18543;50.848;4.596;2023-05-10T00:29:42;1.80;;;0.80;;
32026;SDS011;18543;50.848;4.596;2023-05-10T00:32:12;1.05;;;0.82;;
32026;SDS011;18543;50.848;4.596;2023-05-10T00:37:07;1.73;;;0.80;;
32026;SDS011;18543;50.848;4.596;2023-05-10T00:39:34;1.30;;;0.60;;
32026;SDS011;18543;50.848;4.596;2023-05-10T00:42:01;1.10;;;0.77;;
32026;SDS011;18543;50.848;4.596;2023-05-10T00:44:30;2.35;;;0.80;;
32026;SDS011;18543;50.848;4.596;2023-05-10T00:46:57;0.80;;;0.80;;
32026;SDS011;18543;50.848;4.596;2023-05-10T00:49:25;1.65;;;0.77;;
32026;SDS011;18543;50.848;4.596;2023-05-10T00:51:52;1.48;;;0.82;;
32026;SDS011;18543;50.848;4.596;2023-05-10T00:54:20;1.47;;;0.83;;
32026;SDS011;18543;50.848;4.596;2023-05-10T00:56:47;1.87;;;0.73;;
32026;SDS011;18543;50.848;4.596;2023-05-10T01:01:46;1.38;;;0.60;;
32026;SDS011;18543;50.848;4.596;2023-05-10T01:04:14;1.15;;;0.77;;
32026;SDS011;18543;50.848;4.596;2023-05-10T01:06:41;3.10;;;0.85;;
32026;SDS011;18543;50.848;4.596;2023-05-10T01:09:09;0.77;;;0.70;;
32026;SDS011;18543;50.848;4.596;2023-05-10T01:11:38;2.15;;;0.88;;
32026;SDS011;18543;50.848;4.596;2023-05-10T01:14:05;1.67;;;0.88;;
32026;SDS011;18543;50.848;4.596;2023-05-10T01:16:40;1.20;;;0.70;;
32026;SDS011;18543;50.848;4.596;2023-05-10T01:19:12;1.15;;;0.80;;
32026;SDS011;18543;50.848;4.596;2023-05-10T01:21:57;1.27;;;0.80;;
32026;SDS011;18543;50.848;4.596;2023-05-10T01:34:59;0.80;;;0.73;;
32026;SDS011;18543;50.848;4.596;2023-05-10T01:37:31;1.58;;;0.80;;
32026;SDS011;18543;50.848;4.596;2023-05-10T01:40:03;0.60;;;0.60;;
32026;SDS011;18543;50.848;4.596;2023-05-10T01:42:36;2.25;;;1.00;;
32026;SDS011;18543;50.848;4.596;2023-05-10T01:45:27;1.55;;;0.77;;
32026;SDS011;18543;50.848;4.596;2023-05-10T01:48:04;2.20;;;0.85;;
32026;SDS011;18543;50.848;4.596;2023-05-10T01:50:33;2.33;;;0.80;;
32026;SDS011;18543;50.848;4.596;2023-05-10T01:53:01;1.30;;;0.80;;
32026;SDS011;18543;50.848;4.596;2023-05-10T01:55:30;1.05;;;0.82;;
32026;SDS011;18543;50.848;4.596;2023-05-10T01:58:01;1.77;;;1.00;;
32026;SDS011;18543;50.848;4.596;2023-05-10T02:00:29;1.35;;;0.73;;
32026;SDS011;18543;50.848;4.596;2023-05-10T02:02:57;2.22;;;0.88;;
32026;SDS011;18543;50.848;4.596;2023-05-10T02:05:26;1.65;;;0.90;;
32026;SDS011;18543;50.848;4.596;2023-05-10T02:07:55;1.63;;;0.80;;
32026;SDS011;18543;50.848;4.596;2023-05-10T02:10:23;1.98;;;0.90;;
32026;SDS011;18543;50.848;4.596;2023-05-10T02:12:51;1.45;;;0.90;;
32026;SDS011;18543;50.848;4.596;2023-05-10T02:15:20;1.02;;;0.68;;
32026;SDS011;18543;50.848;4.596;2023-05-10T02:17:48;1.17;;;0.70;;
32026;SDS011;18543;50.848;4.596;2023-05-10T02:20:16;1.00;;;0.75;;
32026;SDS011;18543;50.848;4.596;2023-05-10T02:22:46;1.58;;;0.70;;
32026;SDS011;18543;50.848;4.596;2023-05-10T02:25:14;2.10;;;0.80;;
32026;SDS011;18543;50.848;4.596;2023-05-10T02:27:42;1.33;;;0.90;;
32026;SDS011;18543;50.848;4.596;2023-05-10T02:30:10;1.02;;;0.80;;
32026;SDS011;18543;50.848;4.596;2023-05-10T02:32:41;1.00;;;0.80;;
32026;SDS011;18543;50.848;4.596;2023-05-10T02:35:09;1.10;;;0.80;;
32026;SDS011;18543;50.848;4.596;2023-05-10T02:37:36;1.33;;;0.82;;
32026;SDS011;18543;50.848;4.596;2023-05-10T02:40:06;2.38;;;0.73;;
32026;SDS011;18543;50.848;4.596;2023-05-10T02:42:37;0.80;;;0.77;;
32026;SDS011;18543;50.848;4.596;2023-05-10T02:45:07;0.70;;;0.70;;
32026;SDS011;18543;50.848;4.596;2023-05-10T02:47:35;0.90;;;0.80;;
32026;SDS011;18543;50.848;4.596;2023-05-10T02:50:02;1.27;;;0.80;;
32026;SDS011;18543;50.848;4.596;2023-05-10T02:52:30;0.80;;;0.63;;
32026;SDS011;18543;50.848;4.596;2023-05-10T02:55:03;1.30;;;0.80;;
32026;SDS011;18543;50.848;4.596;2023-05-10T02:57:33;1.10;;;0.75;;
32026;SDS011;18543;50.848;4.596;2023-05-10T03:00:01;1.85;;;0.80;;
32026;SDS011;18543;50.848;4.596;2023-05-10T03:02:29;1.50;;;0.90;;
32026;SDS011;18543;50.848;4.596;2023-05-10T03:04:57;2.80;;;0.82;;
32026;SDS011;18543;50.848;4.596;2023-05-10T03:07:24;0.77;;;0.70;;
32026;SDS011;18543;50.848;4.596;2023-05-10T03:09:52;1.30;;;0.80;;
32026;SDS011;18543;50.848;4.596;2023-05-10T03:12:33;1.05;;;0.82;;
32026;SDS011;18543;50.848;4.596;2023-05-10T03:15:17;0.88;;;0.88;;
32026;SDS011;18543;50.848;4.596;2023-05-10T03:20:29;1.13;;;0.77;;
32026;SDS011;18543;50.848;4.596;2023-05-10T03:23:07;0.70;;;0.70;;
32026;SDS011;18543;50.848;4.596;2023-05-10T03:25:37;1.20;;;0.80;;
32026;SDS011;18543;50.848;4.596;2023-05-10T03:28:04;0.67;;;0.67;;
32026;SDS011;18543;50.848;4.596;2023-05-10T03:30:32;0.70;;;0.70;;
32026;SDS011;18543;50.848;4.596;2023-05-10T03:33:05;0.82;;;0.70;;
32026;SDS011;18543;50.848;4.596;2023-05-10T03:35:35;1.02;;;0.88;;
32026;SDS011;18543;50.848;4.596;2023-05-10T03:38:05;0.90;;;0.80;;
32026;SDS011;18543;50.848;4.596;2023-05-10T03:40:32;1.80;;;0.80;;
32026;SDS011;18543;50.848;4.596;2023-05-10T03:42:59;0.70;;;0.70;;
32026;SDS011;18543;50.848;4.596;2023-05-10T03:45:27;0.83;;;0.70;;
32026;SDS011;18543;50.848;4.596;2023-05-10T03:47:54;0.93;;;0.88;;
32026;SDS011;18543;50.848;4.596;2023-05-10T03:50:22;0.88;;;0.77;;
32026;SDS011;18543;50.848;4.596;2023-05-10T03:52:49;2.47;;;0.90;;
32026;SDS011;18543;50.848;4.596;2023-05-10T03:55:19;1.02;;;0.80;;
32026;SDS011;18543;50.848;4.596;2023-05-10T03:57:47;0.93;;;0.73;;
32026;SDS011;18543;50.848;4.596;2023-05-10T04:00:16;0.82;;;0.80;;
32026;SDS011;18543;50.848;4.596;2023-05-10T04:05:11;0.82;;;0.73;;
32026;SDS011;18543;50.848;4.596;2023-05-10T04:07:39;1.63;;;0.80;;
32026;SDS011;18543;50.848;4.596;2023-05-10T04:10:06;1.10;;;0.97;;
32026;SDS011;18543;50.848;4.596;2023-05-10T04:12:36;0.90;;;0.88;;
32026;SDS011;18543;50.848;4.596;2023-05-10T04:15:06;1.02;;;0.90;;
32026;SDS011;18543;50.848;4.596;2023-05-10T04:17:33;0.88;;;0.88;;
32026;SDS011;18543;50.848;4.596;2023-05-10T04:20:01;0.70;;;0.70;;
32026;SDS011;18543;50.848;4.596;2023-05-10T04:22:29;1.23;;;1.00;;
32026;SDS011;18543;50.848;4.596;2023-05-10T04:24:59;0.70;;;0.70;;
32026;SDS011;18543;50.848;4.596;2023-05-10T04:27:26;2.10;;;0.80;;
32026;SDS011;18543;50.848;4.596;2023-05-10T04:29:53;1.27;;;0.80;;
32026;SDS011;18543;50.848;4.596;2023-05-10T04:32:21;1.13;;;0.80;;
32026;SDS011;18543;50.848;4.596;2023-05-10T04:34:48;1.50;;;0.90;;
32026;SDS011;18543;50.848;4.596;2023-05-10T04:37:17;1.65;;;0.90;;
32026;SDS011;18543;50.848;4.596;2023-05-10T04:39:44;1.35;;;0.85;;
32026;SDS011;18543;50.848;4.596;2023-05-10T04:42:11;1.00;;;0.90;;
32026;SDS011;18543;50.848;4.596;2023-05-10T04:44:41;0.73;;;0.70;;
32026;SDS011;18543;50.848;4.596;2023-05-10T04:47:08;1.88;;;0.90;;
32026;SDS011;18543;50.848;4.596;2023-05-10T04:49:37;1.48;;;0.90;;
32026;SDS011;18543;50.848;4.596;2023-05-10T04:52:05;1.20;;;0.73;;
32026;SDS011;18543;50.848;4.596;2023-05-10T04:54:32;0.80;;;0.80;;
32026;SDS011;18543;50.848;4.596;2023-05-10T04:59:27;2.03;;;0.80;;
32026;SDS011;18543;50.848;4.596;2023-05-10T05:01:55;0.82;;;0.80;;
32026;SDS011;18543;50.848;4.596;2023-05-10T05:04:22;0.68;;;0.68;;
32026;SDS011;18543;50.848;4.596;2023-05-10T05:06:50;0.70;;;0.70;;
32026;SDS011;18543;50.848;4.596;2023-05-10T05:09:19;0.85;;;0.77;;
32026;SDS011;18543;50.848;4.596;2023-05-10T05:11:46;1.57;;;0.90;;
32026;SDS011;18543;50.848;4.596;2023-05-10T05:14:14;0.80;;;0.80;;
32026;SDS011;18543;50.848;4.596;2023-05-10T05:16:42;1.20;;;0.70;;
32026;SDS011;18543;50.848;4.596;2023-05-10T05:19:09;0.70;;;0.70;;
32026;SDS011;18543;50.848;4.596;2023-05-10T05:21:36;0.73;;;0.70;;
32026;SDS011;18543;50.848;4.596;2023-05-10T05:24:04;0.85;;;0.80;;
32026;SDS011;18543;50.848;4.596;2023-05-10T05:26:31;1.88;;;0.90;;
32026;SDS011;18543;50.848;4.596;2023-05-10T05:28:59;0.80;;;0.80;;
32026;SDS011;18543;50.848;4.596;2023-05-10T05:31:26;1.03;;;0.87;;
32026;SDS011;18543;50.848;4.596;2023-05-10T05:33:56;1.30;;;0.83;;
32026;SDS011;18543;50.848;4.596;2023-05-10T05:36:23;0.85;;;0.75;;
32026;SDS011;18543;50.848;4.596;2023-05-10T05:38:50;0.70;;;0.70;;
32026;SDS011;18543;50.848;4.596;2023-05-10T05:41:18;0.93;;;0.83;;
32026;SDS011;18543;50.848;4.596;2023-05-10T05:43:46;0.95;;;0.80;;
32026;SDS011;18543;50.848;4.596;2023-05-10T05:46:15;0.80;;;0.80;;
32026;SDS011;18543;50.848;4.596;2023-05-10T05:48:43;0.88;;;0.88;;
32026;SDS011;18543;50.848;4.596;2023-05-10T05:51:10;0.80;;;0.80;;
32026;SDS011;18543;50.848;4.596;2023-05-10T05:53:37;0.87;;;0.70;;
32026;SDS011;18543;50.848;4.596;2023-05-10T05:56:05;1.13;;;0.85;;
32026;SDS011;18543;50.848;4.596;2023-05-10T05:58:32;1.10;;;0.90;;
32026;SDS011;18543;50.848;4.596;2023-05-10T06:00:59;1.87;;;0.70;;
32026;SDS011;18543;50.848;4.596;2023-05-10T06:03:26;0.83;;;0.83;;
32026;SDS011;18543;50.848;4.596;2023-05-10T06:05:54;0.90;;;0.87;;
32026;SDS011;18543;50.848;4.596;2023-05-10T06:08:21;1.30;;;0.90;;
32026;SDS011;18543;50.848;4.596;2023-05-10T06:10:48;1.20;;;0.87;;
32026;SDS011;18543;50.848;4.596;2023-05-10T06:13:15;0.85;;;0.80;;
32026;SDS011;18543;50.848;4.596;2023-05-10T06:15:43;0.80;;;0.80;;
32026;SDS011;18543;50.848;4.596;2023-05-10T06:18:10;0.80;;;0.80;;
32026;SDS011;18543;50.848;4.596;2023-05-10T06:20:38;0.73;;;0.70;;
32026;SDS011;18543;50.848;4.596;2023-05-10T06:23:05;1.50;;;0.90;;
32026;SDS011;18543;50.848;4.596;2023-05-10T06:25:32;0.80;;;0.80;;
32026;SDS011;18543;50.848;4.596;2023-05-10T06:28:02;0.90;;;0.90;;
32026;SDS011;18543;50.848;4.596;2023-05-10T06:30:30;1.17;;;1.00;;
32026;SDS011;18543;50.848;4.596;2023-05-10T06:32:57;0.70;;;0.70;;
32026;SDS011;18543;50.848;4.596;2023-05-10T06:35:24;1.57;;;0.60;;
32026;SDS011;18543;50.848;4.596;2023-05-10T06:37:52;0.70;;;0.70;;
32026;SDS011;18543;50.848;4.596;2023-05-10T06:40:19;1.53;;;0.70;;
32026;SDS011;18543;50.848;4.596;2023-05-10T06:42:47;3.92;;;0.73;;
32026;SDS011;18543;50.848;4.596;2023-05-10T06:45:14;0.65;;;0.65;;
32026;SDS011;18543;50.848;4.596;2023-05-10T06:50:10;0.85;;;0.70;;
32026;SDS011;18543;50.848;4.596;2023-05-10T06:52:37;2.00;;;0.82;;
32026;SDS011;18543;50.848;4.596;2023-05-10T06:55:05;1.05;;;0.60;;
32026;SDS011;18543;50.848;4.596;2023-05-10T06:57:32;1.60;;;0.70;;
32026;SDS011;18543;50.848;4.596;2023-05-10T07:00:00;0.73;;;0.60;;
32026;SDS011;18543;50.848;4.596;2023-05-10T07:02:27;0.88;;;0.70;;
32026;SDS011;18543;50.848;4.596;2023-05-10T07:04:55;1.48;;;0.70;;
32026;SDS011;18543;50.848;4.596;2023-05-10T07:07:26;2.25;;;0.60;;
32026;SDS011;18543;50.848;4.596;2023-05-10T07:09:53;4.97;;;0.83;;
32026;SDS011;18543;50.848;4.596;2023-05-10T07:12:20;3.72;;;0.60;;
32026;SDS011;18543;50.848;4.596;2023-05-10T07:14:48;0.82;;;0.60;;
32026;SDS011;18543;50.848;4.596;2023-05-10T07:17:15;0.95;;;0.70;;
32026;SDS011;18543;50.848;4.596;2023-05-10T07:19:43;0.83;;;0.50;;
32026;SDS011;18543;50.848;4.596;2023-05-10T07:22:10;1.00;;;0.50;;
32026;SDS011;18543;50.848;4.596;2023-05-10T07:24:38;0.68;;;0.60;;
32026;SDS011;18543;50.848;4.596;2023-05-10T07:27:05;0.70;;;0.60;;
32026;SDS011;18543;50.848;4.596;2023-05-10T07:29:32;0.80;;;0.60;;
32026;SDS011;18543;50.848;4.596;2023-05-10T07:32:00;0.75;;;0.63;;
32026;SDS011;18543;50.848;4.596;2023-05-10T07:34:30;2.42;;;0.60;;
32026;SDS011;18543;50.848;4.596;2023-05-10T07:36:58;0.90;;;0.68;;
32026;SDS011;18543;50.848;4.596;2023-05-10T07:39:26;1.65;;;0.70;;
32026;SDS011;18543;50.848;4.596;2023-05-10T07:41:54;2.53;;;0.60;;
32026;SDS011;18543;50.848;4.596;2023-05-10T07:44:21;0.60;;;0.60;;
32026;SDS011;18543;50.848;4.596;2023-05-10T07:46:49;0.50;;;0.50;;
32026;SDS011;18543;50.848;4.596;2023-05-10T07:49:16;0.88;;;0.63;;
32026;SDS011;18543;50.848;4.596;2023-05-10T07:51:43;1.92;;;0.70;;
32026;SDS011;18543;50.848;4.596;2023-05-10T07:54:11;1.90;;;0.70;;
32026;SDS011;18543;50.848;4.596;2023-05-10T07:56:38;3.90;;;1.35;;
32026;SDS011;18543;50.848;4.596;2023-05-10T07:59:14;0.88;;;0.50;;
32026;SDS011;18543;50.848;4.596;2023-05-10T08:01:41;1.00;;;0.65;;
32026;SDS011;18543;50.848;4.596;2023-05-10T08:04:08;1.30;;;0.60;;
32026;SDS011;18543;50.848;4.596;2023-05-10T08:06:36;3.75;;;0.60;;
32026;SDS011;18543;50.848;4.596;2023-05-10T08:09:03;0.53;;;0.53;;
32026;SDS011;18543;50.848;4.596;2023-05-10T08:11:31;4.38;;;0.82;;
32026;SDS011;18543;50.848;4.596;2023-05-10T08:14:00;3.05;;;0.75;;
32026;SDS011;18543;50.848;4.596;2023-05-10T08:16:27;1.60;;;0.70;;
32026;SDS011;18543;50.848;4.596;2023-05-10T08:18:55;0.98;;;0.60;;
32026;SDS011;18543;50.848;4.596;2023-05-10T08:21:22;2.08;;;0.60;;
32026;SDS011;18543;50.848;4.596;2023-05-10T08:23:49;3.17;;;0.63;;
32026;SDS011;18543;50.848;4.596;2023-05-10T08:26:19;2.07;;;0.80;;
32026;SDS011;18543;50.848;4.596;2023-05-10T08:28:47;0.63;;;0.60;;
32026;SDS011;18543;50.848;4.596;2023-05-10T08:31:15;8.13;;;5.23;;
32026;SDS011;18543;50.848;4.596;2023-05-10T08:33:42;9.82;;;6.07;;
32026;SDS011;18543;50.848;4.596;2023-05-10T08:36:10;12.13;;;6.93;;
32026;SDS011;18543;50.848;4.596;2023-05-10T08:38:40;12.82;;;6.13;;
32026;SDS011;18543;50.848;4.596;2023-05-10T08:41:07;11.07;;;5.20;;
32026;SDS011;18543;50.848;4.596;2023-05-10T08:43:35;6.57;;;4.38;;
32026;SDS011;18543;50.848;4.596;2023-05-10T08:46:02;9.30;;;4.00;;
32026;SDS011;18543;50.848;4.596;2023-05-10T08:48:32;8.85;;;4.60;;
32026;SDS011;18543;50.848;4.596;2023-05-10T08:51:01;8.85;;;4.63;;
32026;SDS011;18543;50.848;4.596;2023-05-10T08:53:28;5.22;;;3.85;;
32026;SDS011;18543;50.848;4.596;2023-05-10T08:56:02;8.88;;;3.33;;
32026;SDS011;18543;50.848;4.596;2023-05-10T08:58:30;5.68;;;3.75;;
32026;SDS011;18543;50.848;4.596;2023-05-10T09:00:58;6.97;;;4.00;;
32026;SDS011;18543;50.848;4.596;2023-05-10T09:03:26;6.70;;;3.10;;
32026;SDS011;18543;50.848;4.596;2023-05-10T09:05:54;4.10;;;3.20;;
32026;SDS011;18543;50.848;4.596;2023-05-10T09:08:22;5.60;;;3.70;;
32026;SDS011;18543;50.848;4.596;2023-05-10T09:10:53;7.93;;;3.65;;
32026;SDS011;18543;50.848;4.596;2023-05-10T09:15:49;8.02;;;3.40;;
32026;SDS011;18543;50.848;4.596;2023-05-10T09:18:16;5.63;;;3.33;;
32026;SDS011;18543;50.848;4.596;2023-05-10T09:20:43;5.80;;;3.67;;
32026;SDS011;18543;50.848;4.596;2023-05-10T09:23:11;5.13;;;3.38;;
32026;SDS011;18543;50.848;4.596;2023-05-10T09:25:43;3.83;;;3.08;;
32026;SDS011;18543;50.848;4.596;2023-05-10T09:28:11;5.25;;;2.50;;
32026;SDS011;18543;50.848;4.596;2023-05-10T09:30:38;7.03;;;3.50;;
32026;SDS011;18543;50.848;4.596;2023-05-10T09:33:06;4.80;;;3.40;;
32026;SDS011;18543;50.848;4.596;2023-05-10T09:35:34;3.45;;;3.15;;
32026;SDS011;18543;50.848;4.596;2023-05-10T09:38:03;4.03;;;3.15;;
32026;SDS011;18543;50.848;4.596;2023-05-10T09:40:31;4.70;;;3.42;;
32026;SDS011;18543;50.848;4.596;2023-05-10T09:45:32;3.53;;;3.05;;
32026;SDS011;18543;50.848;4.596;2023-05-10T09:48:03;5.68;;;3.40;;
32026;SDS011;18543;50.848;4.596;2023-05-10T09:50:31;4.45;;;3.13;;
32026;SDS011;18543;50.848;4.596;2023-05-10T09:52:59;3.27;;;2.97;;
32026;SDS011;18543;50.848;4.596;2023-05-10T09:55:48;3.95;;;3.20;;
32026;SDS011;18543;50.848;4.596;2023-05-10T09:58:16;3.72;;;2.60;;
32026;SDS011;18543;50.848;4.596;2023-05-10T10:00:44;4.43;;;2.95;;
32026;SDS011;18543;50.848;4.596;2023-05-10T10:03:14;4.05;;;2.90;;
32026;SDS011;18543;50.848;4.596;2023-05-10T10:05:43;4.05;;;2.60;;
32026;SDS011;18543;50.848;4.596;2023-05-10T10:10:38;3.15;;;2.70;;
32026;SDS011;18543;50.848;4.596;2023-05-10T10:13:12;3.80;;;2.40;;
32026;SDS011;18543;50.848;4.596;2023-05-10T10:15:39;3.55;;;2.40;;
32026;SDS011;18543;50.848;4.596;2023-05-10T10:18:12;8.95;;;2.90;;
32026;SDS011;18543;50.848;4.596;2023-05-10T10:20:40;7.40;;;2.65;;
32026;SDS011;18543;50.848;4.596;2023-05-10T10:23:08;5.88;;;2.10;;
32026;SDS011;18543;50.848;4.596;2023-05-10T10:25:35;6.30;;;1.90;;
32026;SDS011;18543;50.848;4.596;2023-05-10T10:30:47;5.25;;;1.80;;
32026;SDS011;18543;50.848;4.596;2023-05-10T10:35:53;6.15;;;1.40;;
32026;SDS011;18543;50.848;4.596;2023-05-10T10:38:21;4.63;;;1.30;;
32026;SDS011;18543;50.848;4.596;2023-05-10T10:40:49;7.78;;;1.60;;
32026;SDS011;18543;50.848;4.596;2023-05-10T10:43:28;3.60;;;1.50;;
32026;SDS011;18543;50.848;4.596;2023-05-10T10:46:12;3.45;;;1.70;;
32026;SDS011;18543;50.848;4.596;2023-05-10T10:48:41;3.47;;;1.70;;
32026;SDS011;18543;50.848;4.596;2023-05-10T10:51:08;5.28;;;1.55;;
32026;SDS011;18543;50.848;4.596;2023-05-10T10:53:38;6.55;;;1.58;;
32026;SDS011;18543;50.848;4.596;2023-05-10T10:56:09;2.77;;;1.30;;
32026;SDS011;18543;50.848;4.596;2023-05-10T10:58:39;5.90;;;1.58;;
32026;SDS011;18543;50.848;4.596;2023-05-10T11:01:14;3.58;;;1.30;;
32026;SDS011;18543;50.848;4.596;2023-05-10T11:03:54;2.38;;;1.30;;
32026;SDS011;18543;50.848;4.596;2023-05-10T11:06:31;2.20;;;1.30;;
32026;SDS011;18543;50.848;4.596;2023-05-10T11:09:09;3.72;;;1.40;;
32026;SDS011;18543;50.848;4.596;2023-05-10T11:11:53;4.35;;;1.40;;
32026;SDS011;18543;50.848;4.596;2023-05-10T11:14:22;3.33;;;1.50;;
32026;SDS011;18543;50.848;4.596;2023-05-10T11:16:49;3.08;;;1.40;;
32026;SDS011;18543;50.848;4.596;2023-05-10T11:19:17;2.03;;;1.20;;
32026;SDS011;18543;50.848;4.596;2023-05-10T11:21:51;3.58;;;1.20;;
32026;SDS011;18543;50.848;4.596;2023-05-10T11:24:39;1.60;;;1.20;;
32026;SDS011;18543;50.848;4.596;2023-05-10T11:27:06;2.43;;;1.50;;
32026;SDS011;18543;50.848;4.596;2023-05-10T11:29:33;1.70;;;1.23;;
32026;SDS011;18543;50.848;4.596;2023-05-10T11:32:01;1.92;;;1.27;;
32026;SDS011;18543;50.848;4.596;2023-05-10T11:34:31;3.78;;;1.30;;
32026;SDS011;18543;50.848;4.596;2023-05-10T11:37:01;2.60;;;1.33;;
32026;SDS011;18543;50.848;4.596;2023-05-10T11:39:29;2.50;;;1.25;;
32026;SDS011;18543;50.848;4.596;2023-05-10T11:41:57;2.90;;;1.60;;
32026;SDS011;18543;50.848;4.596;2023-05-10T11:44:31;1.65;;;1.10;;
32026;SDS011;18543;50.848;4.596;2023-05-10T11:46:59;2.50;;;1.35;;
32026;SDS011;18543;50.848;4.596;2023-05-10T11:52:03;2.25;;;1.30;;
32026;SDS011;18543;50.848;4.596;2023-05-10T11:54:31;2.53;;;1.33;;
32026;SDS011;18543;50.848;4.596;2023-05-10T11:57:01;1.67;;;1.15;;
32026;SDS011;18543;50.848;4.596;2023-05-10T11:59:28;2.17;;;1.30;;
32026;SDS011;18543;50.848;4.596;2023-05-10T12:01:55;2.55;;;1.30;;
32026;SDS011;18543;50.848;4.596;2023-05-10T12:04:23;3.00;;;1.48;;
32026;SDS011;18543;50.848;4.596;2023-05-10T12:06:50;5.78;;;1.60;;
32026;SDS011;18543;50.848;4.596;2023-05-10T12:09:17;5.07;;;1.48;;
32026;SDS011;18543;50.848;4.596;2023-05-10T12:12:05;1.77;;;1.20;;
32026;SDS011;18543;50.848;4.596;2023-05-10T12:14:34;4.13;;;1.20;;
32026;SDS011;18543;50.848;4.596;2023-05-10T12:17:01;2.97;;;1.70;;
32026;SDS011;18543;50.848;4.596;2023-05-10T12:19:36;1.70;;;1.60;;
32026;SDS011;18543;50.848;4.596;2023-05-10T12:22:06;3.13;;;1.70;;
32026;SDS011;18543;50.848;4.596;2023-05-10T12:24:34;2.33;;;1.65;;
32026;SDS011;18543;50.848;4.596;2023-05-10T12:27:04;2.67;;;1.70;;
32026;SDS011;18543;50.848;4.596;2023-05-10T12:29:34;4.72;;;1.77;;
32026;SDS011;18543;50.848;4.596;2023-05-10T12:32:02;1.45;;;1.30;;
32026;SDS011;18543;50.848;4.596;2023-05-10T12:34:30;5.28;;;1.40;;
32026;SDS011;18543;50.848;4.596;2023-05-10T12:36:58;3.85;;;1.40;;
32026;SDS011;18543;50.848;4.596;2023-05-10T12:39:26;1.90;;;1.40;;
32026;SDS011;18543;50.848;4.596;2023-05-10T12:41:53;3.00;;;1.50;;
32026;SDS011;18543;50.848;4.596;2023-05-10T12:44:20;1.80;;;1.70;;
32026;SDS011;18543;50.848;4.596;2023-05-10T12:46:48;5.47;;;1.60;;
32026;SDS011;18543;50.848;4.596;2023-05-10T12:49:15;2.72;;;1.50;;
32026;SDS011;18543;50.848;4.596;2023-05-10T12:51:45;6.57;;;1.40;;
32026;SDS011;18543;50.848;4.596;2023-05-10T12:54:14;5.60;;;1.50;;
32026;SDS011;18543;50.848;4.596;2023-05-10T12:56:44;2.45;;;1.30;;
32026;SDS011;18543;50.848;4.596;2023-05-10T12:59:11;3.43;;;1.33;;
32026;SDS011;18543;50.848;4.596;2023-05-10T13:01:39;1.95;;;1.23;;
32026;SDS011;18543;50.848;4.596;2023-05-10T13:04:06;2.28;;;1.30;;
32026;SDS011;18543;50.848;4.596;2023-05-10T13:06:34;2.17;;;1.75;;
32026;SDS011;18543;50.848;4.596;2023-05-10T13:09:01;6.63;;;1.35;;
32026;SDS011;18543;50.848;4.596;2023-05-10T13:11:28;4.25;;;1.35;;
32026;SDS011;18543;50.848;4.596;2023-05-10T13:13:56;1.70;;;1.20;;
32026;SDS011;18543;50.848;4.596;2023-05-10T13:16:23;2.20;;;1.10;;
32026;SDS011;18543;50.848;4.596;2023-05-10T13:18:50;4.22;;;1.30;;
32026;SDS011;18543;50.848;4.596;2023-05-10T13:21:18;3.88;;;1.35;;
32026;SDS011;18543;50.848;4.596;2023-05-10T13:23:45;2.67;;;1.00;;
32026;SDS011;18543;50.848;4.596;2023-05-10T13:26:13;2.42;;;1.20;;
32026;SDS011;18543;50.848;4.596;2023-05-10T13:28:40;3.47;;;1.30;;
32026;SDS011;18543;50.848;4.596;2023-05-10T13:31:07;1.53;;;1.20;;
32026;SDS011;18543;50.848;4.596;2023-05-10T13:33:35;2.15;;;1.10;;
32026;SDS011;18543;50.848;4.596;2023-05-10T13:36:02;6.03;;;1.30;;
32026;SDS011;18543;50.848;4.596;2023-05-10T13:38:29;3.63;;;2.00;;
32026;SDS011;18543;50.848;4.596;2023-05-10T13:40:56;5.13;;;1.70;;
32026;SDS011;18543;50.848;4.596;2023-05-10T13:43:24;1.58;;;1.40;;
32026;SDS011;18543;50.848;4.596;2023-05-10T13:45:51;2.67;;;1.70;;
32026;SDS011;18543;50.848;4.596;2023-05-10T13:48:18;1.70;;;1.40;;
32026;SDS011;18543;50.848;4.596;2023-05-10T13:50:46;2.17;;;1.60;;
32026;SDS011;18543;50.848;4.596;2023-05-10T13:53:13;9.85;;;2.40;;
32026;SDS011;18543;50.848;4.596;2023-05-10T13:55:41;3.00;;;2.08;;
32026;SDS011;18543;50.848;4.596;2023-05-10T13:58:08;3.25;;;2.00;;
32026;SDS011;18543;50.848;4.596;2023-05-10T14:00:35;3.07;;;2.10;;
32026;SDS011;18543;50.848;4.596;2023-05-10T14:03:02;4.40;;;2.20;;
32026;SDS011;18543;50.848;4.596;2023-05-10T14:05:31;5.40;;;2.28;;
32026;SDS011;18543;50.848;4.596;2023-05-10T14:07:58;4.65;;;2.85;;
32026;SDS011;18543;50.848;4.596;2023-05-10T14:10:26;2.87;;;2.10;;
32026;SDS011;18543;50.848;4.596;2023-05-10T14:12:53;4.07;;;2.80;;
32026;SDS011;18543;50.848;4.596;2023-05-10T14:15:20;3.00;;;2.20;;
32026;SDS011;18543;50.848;4.596;2023-05-10T14:17:48;8.18;;;2.70;;
32026;SDS011;18543;50.848;4.596;2023-05-10T14:20:15;4.50;;;2.90;;
32026;SDS011;18543;50.848;4.596;2023-05-10T14:22:42;4.87;;;2.70;;
32026;SDS011;18543;50.848;4.596;2023-05-10T14:25:10;3.47;;;2.75;;
32026;SDS011;18543;50.848;4.596;2023-05-10T14:27:37;4.47;;;3.08;;
32026;SDS011;18543;50.848;4.596;2023-05-10T14:30:05;4.30;;;2.67;;
32026;SDS011;18543;50.848;4.596;2023-05-10T14:32:32;6.18;;;3.10;;
32026;SDS011;18543;50.848;4.596;2023-05-10T14:35:00;3.95;;;2.67;;
32026;SDS011;18543;50.848;4.596;2023-05-10T14:37:27;5.57;;;3.20;;
32026;SDS011;18543;50.848;4.596;2023-05-10T14:39:54;5.47;;;2.73;;
32026;SDS011;18543;50.848;4.596;2023-05-10T14:42:22;3.17;;;2.87;;
32026;SDS011;18543;50.848;4.596;2023-05-10T14:44:49;11.43;;;2.77;;
32026;SDS011;18543;50.848;4.596;2023-05-10T14:47:16;10.70;;;2.37;;
32026;SDS011;18543;50.848;4.596;2023-05-10T14:49:43;8.47;;;2.23;;
32026;SDS011;18543;50.848;4.596;2023-05-10T14:52:11;9.53;;;2.20;;
32026;SDS011;18543;50.848;4.596;2023-05-10T14:54:38;11.73;;;2.00;;
32026;SDS011;18543;50.848;4.596;2023-05-10T14:57:06;14.93;;;1.98;;
32026;SDS011;18543;50.848;4.596;2023-05-10T14:59:33;9.32;;;1.90;;
32026;SDS011;18543;50.848;4.596;2023-05-10T15:02:01;6.60;;;1.60;;
32026;SDS011;18543;50.848;4.596;2023-05-10T15:04:30;7.03;;;1.63;;
32026;SDS011;18543;50.848;4.596;2023-05-10T15:06:58;5.13;;;1.83;;
32026;SDS011;18543;50.848;4.596;2023-05-10T15:09:26;10.40;;;1.80;;
32026;SDS011;18543;50.848;4.596;2023-05-10T15:11:54;5.97;;;1.80;;
32026;SDS011;18543;50.848;4.596;2023-05-10T15:14:22;7.72;;;1.60;;
32026;SDS011;18543;50.848;4.596;2023-05-10T15:16:49;7.78;;;1.88;;
32026;SDS011;18543;50.848;4.596;2023-05-10T15:19:16;4.20;;;1.65;;
32026;SDS011;18543;50.848;4.596;2023-05-10T15:21:43;2.73;;;1.70;;
32026;SDS011;18543;50.848;4.596;2023-05-10T15:24:11;5.03;;;1.90;;
32026;SDS011;18543;50.848;4.596;2023-05-10T15:26:38;7.00;;;1.92;;
32026;SDS011;18543;50.848;4.596;2023-05-10T15:31:33;5.90;;;1.52;;
32026;SDS011;18543;50.848;4.596;2023-05-10T15:34:05;3.08;;;1.50;;
32026;SDS011;18543;50.848;4.596;2023-05-10T15:36:33;4.13;;;1.60;;
32026;SDS011;18543;50.848;4.596;2023-05-10T15:39:00;6.38;;;1.73;;